Wetterdaten: Woche 22.03.04 - 28.03.04 (KW13)
Datum Zeit Temperatur Luftfeuchte Luftdruck Regenmenge Wind Richtung Taupunkt Windchill
22.03.2004 00:00 5.6 C 92 % 1015.1 hPa 0.3 l/m 28.8 km/h (4 Bft) W-NW 4.5 C 1.1 C
22.03.2004 01:00 6.3 C 81 % 1015.1 hPa 0.0 l/m 31.2 km/h (5 Bft) W-NW 3.2 C 1.7 C
22.03.2004 02:00 5.1 C 89 % 1015.2 hPa 1.0 l/m 22.7 km/h (4 Bft) W-NW 3.4 C 1.1 C
22.03.2004 03:00 4.2 C 98 % 1015.4 hPa 0.0 l/m 1.7 km/h (1 Bft) SO 4.0 C 3.9 C
22.03.2004 04:00 4.3 C 100 % 1015.3 hPa 0.3 l/m 1.5 km/h (1 Bft) SO 4.3 C 4.2 C
22.03.2004 05:00 3.9 C 100 % 1015.4 hPa 0.3 l/m 4.1 km/h (1 Bft) S-SO 3.9 C 3.1 C
22.03.2004 06:00 3.0 C 100 % 1015.5 hPa 0.0 l/m 2.6 km/h (1 Bft) SO 3.0 C 2.4 C
22.03.2004 07:00 3.8 C 97 % 1015.4 hPa 0.0 l/m 6.5 km/h (2 Bft) S-SO 3.4 C 2.4 C
22.03.2004 08:00 4.9 C 92 % 1015.3 hPa 0.0 l/m 6.6 km/h (2 Bft) SO 3.7 C 3.6 C
22.03.2004 09:00 6.2 C 82 % 1015.0 hPa 0.0 l/m 13.0 km/h (3 Bft) SO 3.3 C 3.8 C
22.03.2004 10:00 5.9 C 75 % 1014.7 hPa 0.0 l/m 27.6 km/h (4 Bft) NW 1.7 C 1.6 C
22.03.2004 11:00 6.1 C 75 % 1014.3 hPa 0.0 l/m 24.7 km/h (4 Bft) W-NW 2.0 C 2.1 C
22.03.2004 12:00 7.4 C 67 % 1013.9 hPa 0.0 l/m 27.0 km/h (4 Bft) W-NW 1.5 C 3.5 C
22.03.2004 13:00 9.0 C 55 % 1013.4 hPa 0.0 l/m 26.1 km/h (4 Bft) W-NW 0.4 C 5.9 C
22.03.2004 14:00 9.5 C 50 % 1012.5 hPa 0.0 l/m 20.3 km/h (4 Bft) W-NW -0.4 C 7.5 C
22.03.2004 15:00 10.3 C 46 % 1012.4 hPa 0.0 l/m 24.1 km/h (4 Bft) W-NW -0.7 C 9.4 C
22.03.2004 16:00 9.2 C 48 % 1012.6 hPa 0.0 l/m 19.4 km/h (3 Bft) W-NW -1.4 C 6.7 C
22.03.2004 17:00 8.4 C 59 % 1012.7 hPa 0.0 l/m 5.7 km/h (1 Bft) W 0.8 C 7.6 C
22.03.2004 18:00 7.1 C 66 % 1012.2 hPa 0.0 l/m 3.4 km/h (1 Bft) SO 1.2 C 6.6 C
22.03.2004 19:00 4.8 C 82 % 1013.2 hPa 0.0 l/m 2.9 km/h (1 Bft) SO 2.0 C 4.3 C
22.03.2004 20:00 3.7 C 89 % 1013.3 hPa 0.0 l/m 5.3 km/h (1 Bft) SO 2.1 C 2.4 C
22.03.2004 21:00 2.6 C 92 % 1013.5 hPa 0.0 l/m 1.4 km/h (1 Bft) O-SO 1.5 C 2.2 C
22.03.2004 22:00 1.7 C 96 % 1013.7 hPa 0.0 l/m 2.3 km/h (1 Bft) O-SO 1.2 C 1.2 C
22.03.2004 23:00 0.6 C 99 % 1013.8 hPa 0.0 l/m 1.0 km/h (0 Bft) O-SO 0.5 C 0.3 C
23.03.2004 00:00 0.2 C 100 % 1013.9 hPa 0.0 l/m 2.1 km/h (1 Bft) O-SO 0.2 C -0.3 C
23.03.2004 01:00 0.4 C 100 % 1013.8 hPa 0.0 l/m 0.0 km/h (0 Bft) N 0.4 C 0.4 C
23.03.2004 02:00 0.4 C 100 % 1013.8 hPa 0.0 l/m 0.7 km/h (0 Bft) O-SO 0.4 C 0.3 C
23.03.2004 03:00 0.5 C 100 % 1012.9 hPa 0.0 l/m 0.0 km/h (0 Bft) N 0.5 C 0.5 C
23.03.2004 04:00 0.6 C 100 % 1012.8 hPa 0.0 l/m 2.0 km/h (1 Bft) O-SO 0.6 C 0.2 C
23.03.2004 05:00 0.7 C 100 % 1012.8 hPa 0.0 l/m 1.8 km/h (1 Bft) O-SO 0.7 C 0.3 C
23.03.2004 06:00 0.4 C 100 % 1012.0 hPa 0.0 l/m 0.0 km/h (0 Bft) N 0.4 C 0.4 C
23.03.2004 07:00 1.2 C 100 % 1012.7 hPa 0.0 l/m 0.7 km/h (0 Bft) O-SO 1.2 C 1.2 C
23.03.2004 08:00 2.8 C 96 % 1012.4 hPa 0.0 l/m 0.0 km/h (0 Bft) N 2.2 C 2.8 C
23.03.2004 09:00 4.1 C 86 % 1011.4 hPa 0.0 l/m 0.1 km/h (0 Bft) N 1.9 C 4.1 C
23.03.2004 10:00 5.5 C 73 % 1011.0 hPa 0.0 l/m 1.2 km/h (1 Bft) W 1.0 C 5.4 C
23.03.2004 11:00 6.7 C 64 % 1010.3 hPa 0.0 l/m 2.2 km/h (1 Bft) NW 0.4 C 6.4 C
23.03.2004 12:00 6.8 C 67 % 1009.8 hPa 0.0 l/m 5.0 km/h (1 Bft) NW 1.1 C 5.9 C
23.03.2004 13:00 6.8 C 67 % 1008.9 hPa 0.0 l/m 3.1 km/h (1 Bft) NW 1.2 C 6.3 C
23.03.2004 14:00 7.8 C 59 % 1008.6 hPa 0.0 l/m 8.7 km/h (2 Bft) O-SO 0.2 C 6.4 C
23.03.2004 15:00 6.2 C 77 % 1008.8 hPa 0.0 l/m 20.0 km/h (4 Bft) O-SO 2.5 C 2.6 C
23.03.2004 16:00 5.5 C 85 % 1008.9 hPa 0.3 l/m 8.9 km/h (2 Bft) O-SO 3.1 C 3.7 C
23.03.2004 17:00 4.9 C 83 % 1009.0 hPa 0.0 l/m 1.4 km/h (1 Bft) O-SO 2.2 C 4.7 C
23.03.2004 18:00 3.2 C 90 % 1009.8 hPa 2.7 l/m 6.0 km/h (2 Bft) O-SO 1.7 C 1.9 C
23.03.2004 19:00 2.2 C 99 % 1010.4 hPa 0.0 l/m 0.1 km/h (0 Bft) N 2.1 C 2.2 C
23.03.2004 20:00 2.4 C 100 % 1010.2 hPa 0.3 l/m 0.1 km/h (0 Bft) W 2.4 C 2.4 C
23.03.2004 21:00 2.5 C 100 % 1009.4 hPa 0.0 l/m 0.0 km/h (0 Bft) N 2.5 C 2.5 C
23.03.2004 22:00 2.8 C 100 % 1009.3 hPa 0.0 l/m 0.0 km/h (0 Bft) N 2.8 C 2.8 C
23.03.2004 23:00 2.7 C 100 % 1009.3 hPa 0.3 l/m 0.0 km/h (0 Bft) N 2.7 C 2.7 C
24.03.2004 00:00 2.8 C 100 % 1009.3 hPa 0.3 l/m 0.0 km/h (0 Bft) N 2.8 C 2.8 C
24.03.2004 01:00 3.0 C 100 % 1009.3 hPa 0.7 l/m 0.0 km/h (0 Bft) N 3.0 C 3.0 C
24.03.2004 02:00 2.9 C 100 % 1009.3 hPa 0.7 l/m 0.0 km/h (0 Bft) N 2.9 C 2.9 C
24.03.2004 03:00 2.8 C 100 % 1009.2 hPa 0.7 l/m 0.0 km/h (0 Bft) N 2.8 C 2.8 C
24.03.2004 04:00 2.9 C 100 % 1009.3 hPa 0.3 l/m 0.0 km/h (0 Bft) N 2.9 C 2.9 C
24.03.2004 05:00 2.8 C 100 % 1009.3 hPa 0.3 l/m 0.0 km/h (0 Bft) N 2.8 C 2.8 C
24.03.2004 06:00 3.1 C 100 % 1009.3 hPa 0.3 l/m 0.0 km/h (0 Bft) N 3.1 C 3.1 C
24.03.2004 07:00 3.4 C 100 % 1009.9 hPa 0.0 l/m 0.0 km/h (0 Bft) N 3.4 C 3.4 C
24.03.2004 08:00 3.8 C 99 % 1010.2 hPa 0.0 l/m 0.2 km/h (0 Bft) N-NW 3.6 C 3.8 C
24.03.2004 09:00 4.4 C 83 % 1010.1 hPa 0.0 l/m 1.1 km/h (1 Bft) N 1.8 C 4.2 C
24.03.2004 10:00 4.8 C 75 % 1010.9 hPa 0.0 l/m 3.4 km/h (1 Bft) N 0.8 C 4.3 C
24.03.2004 11:00 5.1 C 72 % 1011.1 hPa 0.0 l/m 4.6 km/h (1 Bft) N 0.4 C 4.2 C
24.03.2004 12:00 5.6 C 68 % 1011.0 hPa 0.0 l/m 3.2 km/h (1 Bft) N-NO 0.2 C 5.1 C
24.03.2004 13:00 5.6 C 66 % 1011.0 hPa 0.0 l/m 4.0 km/h (1 Bft) N -0.2 C 4.9 C
24.03.2004 14:00 5.7 C 66 % 1011.2 hPa 0.0 l/m 2.7 km/h (1 Bft) N -0.0 C 5.4 C
24.03.2004 15:00 5.0 C 74 % 1012.1 hPa 0.3 l/m 2.9 km/h (1 Bft) N-NO 0.8 C 4.5 C
24.03.2004 16:00 4.4 C 85 % 1012.2 hPa 0.3 l/m 0.5 km/h (0 Bft) O-NO 2.1 C 4.3 C
24.03.2004 17:00 3.7 C 95 % 1012.8 hPa 1.0 l/m 3.5 km/h (1 Bft) W-NW 3.0 C 2.9 C
24.03.2004 18:00 2.9 C 98 % 1013.5 hPa 0.3 l/m 6.3 km/h (2 Bft) O-SO 2.6 C 1.4 C
24.03.2004 19:00 2.7 C 100 % 1014.4 hPa 0.3 l/m 1.2 km/h (1 Bft) O-SO 2.7 C 2.5 C
24.03.2004 20:00 2.6 C 100 % 1014.5 hPa 0.3 l/m 4.2 km/h (1 Bft) O-SO 2.6 C 2.0 C
24.03.2004 21:00 2.4 C 100 % 1014.6 hPa 0.0 l/m 5.1 km/h (1 Bft) O-SO 2.4 C 1.3 C
24.03.2004 22:00 2.5 C 100 % 1015.3 hPa 0.0 l/m 2.3 km/h (1 Bft) O-SO 2.5 C 2.3 C
24.03.2004 23:00 2.7 C 100 % 1015.6 hPa 0.3 l/m 0.2 km/h (0 Bft) N 2.7 C 2.7 C
25.03.2004 00:00 2.6 C 100 % 1015.4 hPa 0.7 l/m 0.2 km/h (0 Bft) SO 2.6 C 2.6 C
25.03.2004 01:00 2.4 C 100 % 1015.5 hPa 0.0 l/m 0.0 km/h (0 Bft) N 2.4 C 2.4 C
25.03.2004 02:00 2.5 C 100 % 1014.7 hPa 0.3 l/m 0.0 km/h (0 Bft) N 2.5 C 2.5 C
25.03.2004 03:00 2.5 C 100 % 1014.6 hPa 0.3 l/m 0.0 km/h (0 Bft) N 2.5 C 2.5 C
25.03.2004 04:00 2.4 C 100 % 1014.6 hPa 0.7 l/m 0.0 km/h (0 Bft) N 2.4 C 2.4 C
25.03.2004 05:00 2.1 C 100 % 1014.6 hPa 0.7 l/m 0.0 km/h (0 Bft) N 2.1 C 2.1 C
25.03.2004 06:00 1.8 C 100 % 1014.7 hPa 0.0 l/m 0.4 km/h (0 Bft) O-SO 1.8 C 1.8 C
25.03.2004 07:00 1.9 C 100 % 1015.0 hPa 0.3 l/m 3.9 km/h (1 Bft) NW 1.9 C 0.9 C
25.03.2004 08:00 2.2 C 100 % 1015.0 hPa 0.3 l/m 1.2 km/h (1 Bft) W-NW 2.2 C 2.1 C
25.03.2004 09:00 2.5 C 99 % 1015.0 hPa 0.3 l/m 0.5 km/h (0 Bft) S 2.4 C 2.4 C
25.03.2004 10:00 2.8 C 99 % 1015.6 hPa 0.7 l/m 0.5 km/h (0 Bft) S 2.6 C 2.8 C
25.03.2004 11:00 3.7 C 94 % 1014.5 hPa 0.3 l/m 0.7 km/h (0 Bft) NW 2.9 C 3.6 C
25.03.2004 12:00 4.8 C 86 % 1014.2 hPa 0.0 l/m 0.5 km/h (0 Bft) NO 2.7 C 4.8 C
25.03.2004 13:00 4.3 C 89 % 1014.3 hPa 0.3 l/m 7.9 km/h (2 Bft) O-SO 2.6 C 2.5 C
25.03.2004 14:00 4.3 C 92 % 1014.3 hPa 0.0 l/m 6.5 km/h (2 Bft) O 3.1 C 2.9 C
25.03.2004 15:00 5.0 C 87 % 1014.2 hPa 0.0 l/m 10.4 km/h (2 Bft) O-SO 3.0 C 2.7 C
25.03.2004 16:00 4.5 C 85 % 1013.8 hPa 0.0 l/m 15.4 km/h (3 Bft) O-SO 2.2 C 1.1 C
25.03.2004 17:00 4.0 C 78 % 1014.3 hPa 0.0 l/m 6.3 km/h (2 Bft) O-SO 0.4 C 2.4 C
25.03.2004 18:00 3.4 C 69 % 1014.4 hPa 0.0 l/m 2.3 km/h (1 Bft) N-NO -1.7 C 3.1 C
25.03.2004 19:00 2.8 C 72 % 1014.5 hPa 0.0 l/m 1.8 km/h (1 Bft) N-NO -1.8 C 2.5 C
25.03.2004 20:00 2.3 C 75 % 1014.6 hPa 0.0 l/m 0.8 km/h (0 Bft) NO -1.5 C 2.3 C
25.03.2004 21:00 2.3 C 76 % 1014.6 hPa 0.0 l/m 1.8 km/h (1 Bft) NO -1.5 C 1.9 C
25.03.2004 22:00 2.2 C 77 % 1015.4 hPa 0.0 l/m 1.6 km/h (1 Bft) NO -1.5 C 1.9 C
25.03.2004 23:00 2.1 C 75 % 1015.7 hPa 0.0 l/m 1.3 km/h (1 Bft) O -1.8 C 1.8 C
26.03.2004 00:00 2.1 C 77 % 1015.6 hPa 0.0 l/m 1.1 km/h (1 Bft) O -1.6 C 1.8 C
26.03.2004 01:00 2.2 C 76 % 1015.0 hPa 0.0 l/m 4.3 km/h (1 Bft) O -1.6 C 1.2 C
26.03.2004 02:00 1.8 C 73 % 1014.7 hPa 0.0 l/m 2.5 km/h (1 Bft) NO -2.6 C 1.3 C
26.03.2004 03:00 1.4 C 71 % 1014.7 hPa 0.0 l/m 3.6 km/h (1 Bft) NO -3.4 C 0.6 C
26.03.2004 04:00 1.0 C 71 % 1014.3 hPa 0.0 l/m 2.1 km/h (1 Bft) N-NO -3.7 C 0.6 C
26.03.2004 05:00 0.6 C 74 % 1014.1 hPa 0.0 l/m 1.1 km/h (0 Bft) N-NO -3.5 C 0.4 C
26.03.2004 06:00 0.5 C 70 % 1013.9 hPa 0.0 l/m 0.1 km/h (0 Bft) N -4.3 C 0.5 C
26.03.2004 07:00 1.0 C 66 % 1014.8 hPa 0.0 l/m 0.2 km/h (0 Bft) NO -4.8 C 1.0 C
26.03.2004 08:00 1.4 C 63 % 1014.7 hPa 0.0 l/m 1.7 km/h (1 Bft) O -4.8 C 1.2 C
26.03.2004 09:00 2.8 C 59 % 1014.5 hPa 0.0 l/m 3.6 km/h (1 Bft) N-NO -4.4 C 2.1 C
26.03.2004 10:00 3.8 C 52 % 1014.4 hPa 0.0 l/m 10.7 km/h (2 Bft) NO -5.1 C 1.5 C
26.03.2004 11:00 3.4 C 56 % 1014.4 hPa 0.0 l/m 4.8 km/h (1 Bft) N -4.5 C 2.4 C
26.03.2004 12:00 3.0 C 56 % 1014.5 hPa 0.0 l/m 4.5 km/h (1 Bft) N -4.9 C 2.0 C
26.03.2004 13:00 3.9 C 49 % 1014.4 hPa 0.0 l/m 9.4 km/h (2 Bft) NO -5.7 C 1.7 C
26.03.2004 14:00 3.7 C 47 % 1014.4 hPa 0.0 l/m 8.7 km/h (2 Bft) N -6.6 C 1.6 C
26.03.2004 15:00 3.0 C 46 % 1014.5 hPa 0.0 l/m 4.1 km/h (1 Bft) NO -7.6 C 2.2 C
26.03.2004 16:00 2.8 C 46 % 1014.5 hPa 0.0 l/m 6.2 km/h (2 Bft) N-NO -7.6 C 1.4 C
26.03.2004 17:00 2.6 C 46 % 1014.6 hPa 0.0 l/m 5.1 km/h (1 Bft) O-NO -7.9 C 1.3 C
26.03.2004 18:00 2.0 C 47 % 1014.6 hPa 0.0 l/m 5.9 km/h (2 Bft) O-NO -8.2 C 0.5 C
26.03.2004 19:00 1.2 C 49 % 1014.9 hPa 0.0 l/m 1.5 km/h (1 Bft) N-NO -8.4 C 0.9 C
26.03.2004 20:00 0.6 C 53 % 1015.9 hPa 0.0 l/m 0.7 km/h (0 Bft) N-NO -7.7 C 0.6 C
26.03.2004 21:00 -0.5 C 59 % 1016.1 hPa 0.0 l/m 0.0 km/h (0 Bft) N -7.6 C -0.5 C
26.03.2004 22:00 -2.4 C 72 % 1015.7 hPa 0.0 l/m 0.1 km/h (0 Bft) O-NO -6.8 C -2.4 C
26.03.2004 23:00 -3.4 C 79 % 1015.4 hPa 0.0 l/m 0.0 km/h (0 Bft) N -6.5 C -3.4 C
27.03.2004 00:00 -3.5 C 83 % 1015.5 hPa 0.0 l/m 0.0 km/h (0 Bft) N -5.9 C -3.5 C
27.03.2004 01:00 -2.3 C 75 % 1015.3 hPa 0.0 l/m 0.4 km/h (0 Bft) N-NO -6.2 C -2.3 C
27.03.2004 02:00 -3.0 C 79 % 1014.3 hPa 0.0 l/m 0.0 km/h (0 Bft) N -6.2 C -3.0 C
27.03.2004 03:00 -2.5 C 78 % 1014.3 hPa 0.0 l/m 0.2 km/h (0 Bft) N -5.9 C -2.5 C
27.03.2004 04:00 -2.5 C 77 % 1014.3 hPa 0.0 l/m 0.8 km/h (0 Bft) NO -5.9 C -2.6 C
27.03.2004 05:00 -2.8 C 77 % 1014.3 hPa 0.0 l/m 0.3 km/h (0 Bft) N-NO -6.2 C -2.8 C
27.03.2004 06:00 -3.0 C 79 % 1014.3 hPa 0.0 l/m 0.1 km/h (0 Bft) N -6.2 C -3.0 C
27.03.2004 07:00 -2.0 C 70 % 1014.2 hPa 0.0 l/m 1.3 km/h (1 Bft) NO -6.6 C -2.3 C
27.03.2004 08:00 -0.2 C 65 % 1014.8 hPa 0.0 l/m 4.2 km/h (1 Bft) NO -5.9 C -1.5 C
27.03.2004 09:00 1.7 C 59 % 1014.7 hPa 0.0 l/m 14.8 km/h (3 Bft) O-SO -5.4 C -1.5 C
27.03.2004 10:00 3.5 C 55 % 1014.4 hPa 0.0 l/m 15.8 km/h (3 Bft) O-SO -4.8 C -0.0 C
27.03.2004 11:00 3.6 C 48 % 1014.4 hPa 0.0 l/m 6.5 km/h (2 Bft) NO -6.3 C 2.1 C
27.03.2004 12:00 5.6 C 43 % 1014.1 hPa 0.0 l/m 6.2 km/h (2 Bft) NO -5.9 C 4.3 C
27.03.2004 13:00 6.6 C 44 % 1013.9 hPa 0.0 l/m 8.2 km/h (2 Bft) O-SO -4.9 C 5.2 C
27.03.2004 14:00 7.3 C 42 % 1013.3 hPa 0.0 l/m 6.8 km/h (2 Bft) O-SO -4.7 C 6.2 C
27.03.2004 15:00 7.5 C 43 % 1012.8 hPa 0.0 l/m 13.3 km/h (3 Bft) O-SO -4.3 C 5.2 C
27.03.2004 16:00 7.0 C 45 % 1012.9 hPa 0.0 l/m 16.1 km/h (3 Bft) O-SO -4.2 C 4.1 C
27.03.2004 17:00 6.3 C 48 % 1013.7 hPa 0.0 l/m 11.2 km/h (2 Bft) O-SO -4.1 C 4.1 C
27.03.2004 18:00 4.6 C 53 % 1014.3 hPa 0.0 l/m 10.0 km/h (2 Bft) O-SO -4.0 C 2.3 C
27.03.2004 19:00 2.4 C 62 % 1015.2 hPa 0.0 l/m 3.0 km/h (1 Bft) O-SO -4.3 C 1.8 C
27.03.2004 20:00 0.4 C 77 % 1015.9 hPa 0.0 l/m 2.6 km/h (1 Bft) O-SO -3.1 C -0.2 C
27.03.2004 21:00 -0.5 C 80 % 1016.5 hPa 0.0 l/m 0.3 km/h (0 Bft) O-SO -3.6 C -0.5 C
27.03.2004 22:00 -1.5 C 84 % 1017.2 hPa 0.0 l/m 0.0 km/h (0 Bft) N -3.8 C -1.5 C
27.03.2004 23:00 -2.2 C 90 % 1017.4 hPa 0.0 l/m 0.0 km/h (0 Bft) N -3.6 C -2.2 C
28.03.2004 00:00 -2.7 C 92 % 1018.4 hPa 0.0 l/m 0.2 km/h (0 Bft) O-SO -3.8 C -2.7 C
28.03.2004 01:00 -2.8 C 94 % 1018.5 hPa 0.0 l/m 0.1 km/h (0 Bft) O-SO -3.7 C -2.8 C
28.03.2004 03:00 -3.4 C 94 % 1018.6 hPa 0.0 l/m 0.1 km/h (0 Bft) O-SO -4.2 C -3.4 C
28.03.2004 04:00 -3.9 C 95 % 1018.6 hPa 0.0 l/m 0.0 km/h (0 Bft) N -4.7 C -3.9 C
28.03.2004 05:00 -4.0 C 96 % 1018.8 hPa 0.0 l/m 0.3 km/h (0 Bft) O-SO -4.5 C -4.0 C
28.03.2004 06:00 -4.3 C 96 % 1019.7 hPa 0.0 l/m 0.4 km/h (0 Bft) O-SO -4.8 C -4.3 C
28.03.2004 07:00 -4.4 C 97 % 1019.8 hPa 0.0 l/m 0.2 km/h (0 Bft) O-SO -4.9 C -4.4 C
28.03.2004 08:00 -2.9 C 94 % 1019.7 hPa 0.0 l/m 0.0 km/h (0 Bft) N -3.8 C -2.9 C
28.03.2004 09:00 -1.3 C 87 % 1019.7 hPa 0.0 l/m 0.0 km/h (0 Bft) N -3.1 C -1.3 C
28.03.2004 10:00 0.9 C 75 % 1020.0 hPa 0.0 l/m 0.2 km/h (0 Bft) N -2.9 C 0.9 C
28.03.2004 11:00 3.6 C 62 % 1019.1 hPa 0.0 l/m 2.7 km/h (1 Bft) NW -3.0 C 3.1 C
28.03.2004 12:00 6.0 C 51 % 1018.2 hPa 0.0 l/m 5.0 km/h (1 Bft) NW -3.2 C 5.1 C
28.03.2004 13:00 8.6 C 43 % 1017.8 hPa 0.0 l/m 3.5 km/h (1 Bft) W-NW -3.1 C 8.4 C
28.03.2004 14:00 9.9 C 39 % 1017.4 hPa 0.0 l/m 5.0 km/h (1 Bft) NW -3.3 C 9.6 C
28.03.2004 15:00 11.7 C 39 % 1016.4 hPa 0.0 l/m 5.0 km/h (1 Bft) W-NW -1.7 C 11.7 C
28.03.2004 16:00 12.3 C 34 % 1016.3 hPa 0.0 l/m 2.7 km/h (1 Bft) O-SO -3.0 C 12.3 C
28.03.2004 17:00 11.9 C 34 % 1016.4 hPa 0.0 l/m 5.6 km/h (1 Bft) O-SO -3.6 C 11.9 C
28.03.2004 18:00 11.2 C 36 % 1016.5 hPa 0.0 l/m 4.8 km/h (1 Bft) O-SO -3.5 C 11.2 C
28.03.2004 19:00 9.3 C 43 % 1016.7 hPa 0.0 l/m 6.2 km/h (2 Bft) O-SO -2.8 C 8.7 C
28.03.2004 20:00 6.6 C 51 % 1017.8 hPa 0.0 l/m 4.8 km/h (1 Bft) O-SO -2.9 C 5.9 C
28.03.2004 21:00 3.9 C 69 % 1018.8 hPa 0.0 l/m 1.7 km/h (1 Bft) O-SO -1.3 C 3.5 C
28.03.2004 22:00 2.3 C 78 % 1019.8 hPa 0.0 l/m 0.0 km/h (0 Bft) N -1.1 C 2.3 C
28.03.2004 23:00 1.1 C 85 % 1020.0 hPa 0.0 l/m 0.4 km/h (0 Bft) O-SO -1.1 C 1.1 C
Min-Datum _ 28.03.04 28.03.04 24.03.04 - 22.03.04 - 26.03.04 27.03.04
_ Min-Zeit 07:12 16:54 03:42 - 03:06 - 18:21 07:15
Minimum _ -4.9 C 31 % 1008.3 hPa - 0.0 km/h (0 Bft) - -8.8 C -6.5 C
Max-Datum _ 28.03.04 22.03.04 28.03.04 23.03.04 22.03.04 - 22.03.04 28.03.04
_ Max-Zeit 16:20 03:54 23:54 18:21 15:15 - 00:18 16:20
Maximum _ 13.0 C 100 % 1021.1 hPa 2.7 l/m 45.0 km/h
W-NW (6 Bft)
- 5.2 C 13.0 C
Durchschnitt _ 3.0 C 78 % 1014.1 hPa #17.1 l/m 4.4 km/h (1 Bft) O-SO -1.0 C 2.3 C

Durchschnitt Minimum Temp.2.4 C
Durchschnitt Maximum Temp.3.7 C
© Kaiko 2004